createdAt,value
2023-11-30T00:02:02.994Z,-2.16
2023-11-30T00:04:31.177Z,-2.17
2023-11-30T00:06:59.240Z,-2.18
2023-11-30T00:09:27.352Z,-2.17
2023-11-30T00:11:56.940Z,-2.18
2023-11-30T00:14:25.056Z,-2.19
2023-11-30T00:16:53.230Z,-2.17
2023-11-30T00:19:21.330Z,-2.17
2023-11-30T00:21:49.479Z,-2.17
2023-11-30T00:24:17.915Z,-2.18
2023-11-30T00:26:46.051Z,-2.18
2023-11-30T00:29:15.634Z,-2.19
2023-11-30T00:31:43.806Z,-2.21
2023-11-30T00:34:11.838Z,-2.21
2023-11-30T00:36:39.917Z,-2.21
2023-11-30T00:39:11.114Z,-2.21
2023-11-30T00:41:39.301Z,-2.21
2023-11-30T00:44:07.644Z,-2.22
2023-11-30T00:46:37.124Z,-2.26
2023-11-30T00:49:05.358Z,-2.27
2023-11-30T00:51:35.444Z,-2.27
2023-11-30T00:54:04.040Z,-2.28
2023-11-30T00:56:32.311Z,-2.28
2023-11-30T00:59:02.471Z,-2.29
2023-11-30T01:01:30.744Z,-2.28
2023-11-30T01:04:00.392Z,-2.28
2023-11-30T01:06:28.623Z,-2.28
2023-11-30T01:08:56.861Z,-2.28
2023-11-30T01:11:25.045Z,-2.26
2023-11-30T01:13:56.187Z,-2.26
2023-11-30T01:16:24.403Z,-2.25
2023-11-30T01:18:52.648Z,-2.25
2023-11-30T01:21:22.362Z,-2.24
2023-11-30T01:23:52.989Z,-2.21
2023-11-30T01:26:21.145Z,-2.20
2023-11-30T01:28:49.243Z,-2.19
2023-11-30T01:31:17.333Z,-2.17
2023-11-30T01:33:45.471Z,-2.16
2023-11-30T01:36:13.938Z,-2.14
2023-11-30T01:38:43.379Z,-2.13
2023-11-30T01:41:11.642Z,-2.12
2023-11-30T01:43:39.737Z,-2.12
2023-11-30T01:46:08.814Z,-2.12
2023-11-30T01:48:36.997Z,-2.10
2023-11-30T01:51:08.861Z,-2.12
2023-11-30T01:53:38.189Z,-2.14
2023-11-30T01:56:09.825Z,-2.07
2023-11-30T01:58:38.617Z,-2.12
2023-11-30T02:01:09.236Z,-2.14
2023-11-30T02:03:38.327Z,-2.14
2023-11-30T02:06:07.489Z,-2.14
2023-11-30T02:08:36.455Z,-2.14
2023-11-30T02:11:04.987Z,-2.14
2023-11-30T02:13:34.576Z,-2.12
2023-11-30T02:16:02.834Z,-2.10
2023-11-30T02:18:31.002Z,-2.10
2023-11-30T02:20:59.191Z,-2.11
2023-11-30T02:23:28.699Z,-2.11
2023-11-30T02:25:56.812Z,-2.10
2023-11-30T02:28:24.928Z,-2.10
2023-11-30T02:30:53.113Z,-2.13
2023-11-30T02:33:23.568Z,-2.15
2023-11-30T02:35:51.817Z,-2.13
2023-11-30T02:38:19.950Z,-2.10
2023-11-30T02:40:49.499Z,-2.09
2023-11-30T02:43:17.625Z,-2.09
2023-11-30T02:45:45.784Z,-2.06
2023-11-30T02:48:14.065Z,-2.01
2023-11-30T02:50:42.142Z,-2.05
2023-11-30T02:53:10.398Z,-2.05
2023-11-30T02:55:38.498Z,-2.05
2023-11-30T02:58:08.067Z,-2.05
2023-11-30T03:00:36.180Z,-2.02
2023-11-30T03:03:04.562Z,-2.01
2023-11-30T03:05:33.715Z,-1.99
2023-11-30T03:08:01.983Z,-1.98
2023-11-30T03:10:30.236Z,-1.97
2023-11-30T03:12:58.474Z,-1.94
2023-11-30T03:15:28.001Z,-1.91
2023-11-30T03:17:56.267Z,-1.88
2023-11-30T03:20:24.389Z,-1.84
2023-11-30T03:22:52.554Z,-1.83
2023-11-30T03:25:20.608Z,-1.82
2023-11-30T03:27:48.702Z,-1.81
2023-11-30T03:30:16.917Z,-1.79
2023-11-30T03:32:46.955Z,-1.77
2023-11-30T03:35:15.207Z,-1.74
2023-11-30T03:37:45.072Z,-1.71
2023-11-30T03:40:14.265Z,-1.68
2023-11-30T03:42:42.382Z,-1.68
2023-11-30T03:45:11.405Z,-1.62
2023-11-30T03:47:39.583Z,-1.60
2023-11-30T03:50:09.955Z,-1.57
2023-11-30T03:52:38.362Z,-1.54
2023-11-30T03:55:09.729Z,-1.54
2023-11-30T03:57:37.811Z,-1.51
2023-11-30T04:00:09.286Z,-1.51
2023-11-30T04:02:37.652Z,-1.49
2023-11-30T04:05:06.871Z,-1.47
2023-11-30T04:07:37.928Z,-1.41
2023-11-30T04:10:07.146Z,-1.41
2023-11-30T04:12:36.820Z,-1.41
2023-11-30T04:15:06.899Z,-1.42
2023-11-30T04:17:36.344Z,-1.42
2023-11-30T04:20:06.390Z,-1.38
2023-11-30T04:22:34.464Z,-1.39
2023-11-30T04:25:08.031Z,-1.41
2023-11-30T04:27:36.300Z,-1.40
2023-11-30T04:30:04.742Z,-1.40
2023-11-30T04:32:32.962Z,-1.39
2023-11-30T04:35:01.425Z,-1.38
2023-11-30T04:37:29.636Z,-1.35
2023-11-30T04:39:59.963Z,-1.34
2023-11-30T04:42:29.575Z,-1.33
2023-11-30T04:44:57.734Z,-1.32
2023-11-30T04:47:26.067Z,-1.32
2023-11-30T04:49:54.171Z,-1.31
2023-11-30T04:52:22.229Z,-1.31
2023-11-30T04:54:50.438Z,-1.31
2023-11-30T04:57:18.879Z,-1.31
2023-11-30T04:59:48.450Z,-1.31
2023-11-30T05:02:16.828Z,-1.31
2023-11-30T05:04:45.176Z,-1.31
2023-11-30T05:07:13.333Z,-1.31
2023-11-30T05:09:41.384Z,-1.29
2023-11-30T05:12:09.609Z,-1.29
2023-11-30T05:14:37.659Z,-1.30
2023-11-30T05:17:07.389Z,-1.31
2023-11-30T05:19:35.598Z,-1.30
2023-11-30T05:22:03.673Z,-1.27
2023-11-30T05:24:31.788Z,-1.24
2023-11-30T05:26:59.941Z,-1.25
2023-11-30T05:29:28.150Z,-1.25
2023-11-30T05:31:56.654Z,-1.25
2023-11-30T05:34:26.141Z,-1.29
2023-11-30T05:36:54.217Z,-1.28
2023-11-30T05:39:22.294Z,-1.25
2023-11-30T05:41:50.811Z,-1.24
2023-11-30T05:44:21.799Z,-1.19
2023-11-30T05:46:51.625Z,-1.20
2023-11-30T05:49:19.823Z,-1.21
2023-11-30T05:51:49.403Z,-1.22
2023-11-30T05:54:17.789Z,-1.22
2023-11-30T05:56:46.108Z,-1.23
2023-11-30T05:59:14.796Z,-1.24
2023-11-30T06:01:42.957Z,-1.25
2023-11-30T06:04:11.663Z,-1.26
2023-11-30T06:06:39.803Z,-1.23
2023-11-30T06:09:09.488Z,-1.28
2023-11-30T06:11:37.732Z,-1.30
2023-11-30T06:14:05.798Z,-1.30
2023-11-30T06:16:33.974Z,-1.29
2023-11-30T06:19:02.054Z,-1.30
2023-11-30T06:21:30.625Z,-1.29
2023-11-30T06:23:58.862Z,-1.30
2023-11-30T06:26:28.385Z,-1.24
2023-11-30T06:28:56.517Z,-1.28
2023-11-30T06:31:24.588Z,-1.28
2023-11-30T06:33:52.897Z,-1.28
2023-11-30T06:36:20.962Z,-1.29
2023-11-30T06:38:51.469Z,-1.27
2023-11-30T06:41:19.552Z,-1.24
2023-11-30T06:43:48.999Z,-1.18
2023-11-30T06:46:21.774Z,-1.17
2023-11-30T06:48:50.082Z,-1.11
2023-11-30T06:51:18.583Z,-1.11
2023-11-30T06:53:46.683Z,-1.09
2023-11-30T06:56:14.992Z,-1.06
2023-11-30T06:58:43.191Z,-1.02
2023-11-30T07:01:12.785Z,-1.02
2023-11-30T07:03:43.109Z,-0.96
2023-11-30T07:06:12.107Z,-0.97
2023-11-30T07:08:40.373Z,-0.96
2023-11-30T07:11:09.886Z,-0.93
2023-11-30T07:13:38.051Z,-0.94
2023-11-30T07:16:07.899Z,-0.89
2023-11-30T07:18:37.579Z,-0.91
2023-11-30T07:21:06.504Z,-0.90
2023-11-30T07:23:34.718Z,-0.91
2023-11-30T07:26:04.178Z,-0.90
2023-11-30T07:28:33.403Z,-0.88
2023-11-30T07:31:01.594Z,-0.87
2023-11-30T07:33:30.663Z,-0.86
2023-11-30T07:36:00.297Z,-0.84
2023-11-30T07:38:28.756Z,-0.78
2023-11-30T07:40:57.783Z,-0.80
2023-11-30T07:43:25.888Z,-0.79
2023-11-30T07:45:54.088Z,-0.79
2023-11-30T07:48:22.326Z,-0.79
2023-11-30T07:50:50.554Z,-0.75
2023-11-30T07:53:20.266Z,-0.78
2023-11-30T07:55:48.347Z,-0.77
2023-11-30T07:58:16.566Z,-0.74
2023-11-30T08:00:44.706Z,-0.74
2023-11-30T08:03:12.811Z,-0.74
2023-11-30T08:05:40.940Z,-0.69
2023-11-30T08:08:10.404Z,-0.72
2023-11-30T08:10:39.896Z,-0.68
2023-11-30T08:13:08.263Z,-0.70
2023-11-30T08:15:36.483Z,-0.74
2023-11-30T08:18:09.123Z,-0.73
2023-11-30T08:20:40.843Z,-0.70
2023-11-30T08:23:09.044Z,-0.71
2023-11-30T08:25:37.084Z,-0.70
2023-11-30T08:28:06.729Z,-0.70
2023-11-30T08:30:34.918Z,-0.70
2023-11-30T08:33:06.777Z,-0.64
2023-11-30T08:35:35.195Z,-0.62
2023-11-30T08:38:03.320Z,-0.60
2023-11-30T08:40:31.381Z,-0.54
2023-11-30T08:42:59.514Z,-0.52
2023-11-30T08:45:29.371Z,-0.49
2023-11-30T08:47:57.562Z,-0.50
2023-11-30T08:50:25.738Z,-0.52
2023-11-30T08:52:53.841Z,-0.48
2023-11-30T08:55:21.959Z,-0.48
2023-11-30T08:57:50.160Z,-0.49
2023-11-30T09:00:20.668Z,-0.45
2023-11-30T09:02:50.321Z,-0.41
2023-11-30T09:05:19.511Z,-0.38
2023-11-30T09:07:47.596Z,-0.36
2023-11-30T09:10:15.813Z,-0.36
2023-11-30T09:12:47.024Z,-0.32
2023-11-30T09:15:15.332Z,-0.26
2023-11-30T09:17:43.490Z,-0.25
2023-11-30T09:20:13.350Z,-0.23
2023-11-30T09:22:41.929Z,-0.21
2023-11-30T09:25:11.740Z,-0.19
2023-11-30T09:27:39.904Z,-0.16
2023-11-30T09:30:10.568Z,-0.13
2023-11-30T09:32:38.844Z,-0.09
2023-11-30T09:35:07.871Z,-0.07
2023-11-30T09:37:37.388Z,-0.02
2023-11-30T09:40:07.349Z,0.02
2023-11-30T09:42:35.462Z,0.11
2023-11-30T09:45:05.504Z,0.12
2023-11-30T09:47:33.899Z,0.17
2023-11-30T09:50:02.452Z,0.18
2023-11-30T09:52:32.549Z,0.26
2023-11-30T09:55:02.165Z,0.29
2023-11-30T09:57:30.319Z,0.35
2023-11-30T09:59:59.604Z,0.37
2023-11-30T10:02:29.765Z,0.39
2023-11-30T10:04:59.020Z,0.45
2023-11-30T10:07:27.122Z,0.51
2023-11-30T10:09:58.574Z,0.54
2023-11-30T10:12:28.248Z,0.49
2023-11-30T10:15:02.010Z,0.56
2023-11-30T10:17:30.511Z,0.61
2023-11-30T10:20:01.269Z,0.64
2023-11-30T10:22:29.424Z,0.72
2023-11-30T10:25:00.040Z,0.76
2023-11-30T10:27:34.051Z,0.82
2023-11-30T10:30:02.936Z,0.81
2023-11-30T10:32:36.953Z,0.80
2023-11-30T10:35:07.851Z,0.81
2023-11-30T10:37:42.597Z,0.84
2023-11-30T10:40:12.213Z,0.86
2023-11-30T10:42:43.040Z,0.92
2023-11-30T10:45:13.753Z,0.91
2023-11-30T10:47:44.189Z,0.96
2023-11-30T10:50:13.603Z,0.97
2023-11-30T10:52:44.865Z,0.96
2023-11-30T10:55:17.518Z,0.98
2023-11-30T10:57:47.996Z,1.03
2023-11-30T11:00:18.055Z,1.03
2023-11-30T11:02:48.173Z,0.97
2023-11-30T11:05:19.621Z,1.01
2023-11-30T11:07:48.135Z,1.04
2023-11-30T11:10:23.632Z,1.08
2023-11-30T11:12:53.912Z,1.09
2023-11-30T11:15:23.568Z,1.13
2023-11-30T11:17:53.950Z,1.13
2023-11-30T11:20:27.442Z,1.14
2023-11-30T11:22:56.883Z,1.17
2023-11-30T11:25:26.795Z,1.23
2023-11-30T11:27:57.280Z,1.26
2023-11-30T11:30:28.278Z,1.27
2023-11-30T11:33:00.000Z,1.25
2023-11-30T11:35:28.930Z,1.28
2023-11-30T11:38:01.157Z,1.32
2023-11-30T11:40:29.298Z,1.32
2023-11-30T11:42:58.781Z,1.35
2023-11-30T11:45:27.094Z,1.41
2023-11-30T11:47:55.321Z,1.44
2023-11-30T11:50:23.884Z,1.52
2023-11-30T11:52:52.130Z,1.57
2023-11-30T11:55:25.252Z,1.57
2023-11-30T11:57:54.853Z,1.60
2023-11-30T12:00:25.951Z,1.64
2023-11-30T12:03:05.379Z,1.64
2023-11-30T12:05:33.586Z,1.69
2023-11-30T12:08:02.576Z,1.66
2023-11-30T12:10:32.672Z,1.69
2023-11-30T12:13:02.334Z,1.69
2023-11-30T12:15:32.057Z,1.72
2023-11-30T12:18:03.261Z,1.74
2023-11-30T12:20:32.220Z,1.76
2023-11-30T12:23:00.405Z,1.82
2023-11-30T12:25:29.684Z,1.79
2023-11-30T12:27:58.458Z,1.74
2023-11-30T12:30:26.860Z,1.76
2023-11-30T12:32:56.850Z,1.74
2023-11-30T12:35:25.805Z,1.67
2023-11-30T12:37:54.055Z,1.66
2023-11-30T12:40:24.200Z,1.61
2023-11-30T12:42:52.416Z,1.66
2023-11-30T12:45:27.150Z,1.71
2023-11-30T12:48:05.667Z,1.74
2023-11-30T12:50:39.712Z,1.79
2023-11-30T12:53:08.117Z,1.80
2023-11-30T12:55:36.356Z,1.90
2023-11-30T12:58:04.684Z,1.90
2023-11-30T13:00:35.824Z,1.92
2023-11-30T13:03:05.509Z,1.92
2023-11-30T13:05:36.448Z,1.94
2023-11-30T13:08:06.377Z,1.97
2023-11-30T13:10:34.552Z,1.99
2023-11-30T13:13:02.816Z,2.00
2023-11-30T13:15:31.456Z,2.04
2023-11-30T13:18:02.019Z,1.98
2023-11-30T13:20:31.559Z,2.05
2023-11-30T13:22:59.656Z,1.93
2023-11-30T13:25:31.309Z,1.88
2023-11-30T13:27:59.383Z,1.91
2023-11-30T13:30:29.885Z,1.88
2023-11-30T13:32:59.703Z,1.77
2023-11-30T13:35:27.995Z,1.71
2023-11-30T13:37:59.232Z,1.74
2023-11-30T13:40:27.796Z,1.78
2023-11-30T13:42:55.851Z,1.78
2023-11-30T13:45:25.743Z,1.70
2023-11-30T13:47:53.891Z,1.73
2023-11-30T13:50:30.713Z,1.75
2023-11-30T13:53:11.583Z,1.78
2023-11-30T13:55:39.992Z,1.77
2023-11-30T13:58:08.678Z,1.77
2023-11-30T14:00:38.127Z,1.77
2023-11-30T14:03:06.395Z,1.76
2023-11-30T14:05:34.664Z,1.79
2023-11-30T14:08:03.517Z,1.79
2023-11-30T14:10:33.063Z,1.75
2023-11-30T14:13:01.228Z,1.77
2023-11-30T14:15:29.272Z,1.75
2023-11-30T14:17:57.475Z,1.70
2023-11-30T14:20:29.486Z,1.63
2023-11-30T14:22:57.702Z,1.66
2023-11-30T14:25:26.973Z,1.65
2023-11-30T14:27:57.734Z,1.65
2023-11-30T14:30:27.863Z,1.69
2023-11-30T14:32:56.385Z,1.68
2023-11-30T14:35:24.509Z,1.67
2023-11-30T14:37:54.747Z,1.62
2023-11-30T14:40:24.044Z,1.66
2023-11-30T14:42:54.566Z,1.65
2023-11-30T14:45:24.681Z,1.66
2023-11-30T14:47:52.895Z,1.61
2023-11-30T14:50:21.158Z,1.62
2023-11-30T14:52:49.427Z,1.57
2023-11-30T14:55:17.617Z,1.59
2023-11-30T14:57:45.866Z,1.56
2023-11-30T15:00:18.303Z,1.58
2023-11-30T15:02:47.738Z,1.56
2023-11-30T15:05:16.720Z,1.57
2023-11-30T15:07:45.149Z,1.54
2023-11-30T15:10:14.189Z,1.55
2023-11-30T15:12:42.732Z,1.56
2023-11-30T15:15:15.382Z,1.58
2023-11-30T15:17:45.385Z,1.56
2023-11-30T15:20:16.044Z,1.58
2023-11-30T15:22:45.148Z,1.59
2023-11-30T15:25:19.937Z,1.51
2023-11-30T15:27:49.799Z,1.46
2023-11-30T15:30:18.700Z,1.41
2023-11-30T15:32:47.016Z,1.40
2023-11-30T15:35:16.916Z,1.42
2023-11-30T15:37:50.124Z,1.36
2023-11-30T15:40:22.410Z,1.35
2023-11-30T15:42:52.729Z,1.31
2023-11-30T15:45:23.071Z,1.31
2023-11-30T15:47:51.842Z,1.32
2023-11-30T15:50:21.864Z,1.30
2023-11-30T15:52:49.949Z,1.26
2023-11-30T15:55:20.662Z,1.28
2023-11-30T15:57:48.930Z,1.19
2023-11-30T16:00:21.478Z,1.15
2023-11-30T16:02:50.244Z,1.09
2023-11-30T16:05:18.763Z,1.07
2023-11-30T16:07:48.173Z,1.08
2023-11-30T16:10:16.456Z,1.05
2023-11-30T16:12:48.774Z,1.01
2023-11-30T16:15:16.926Z,0.99
2023-11-30T16:17:47.052Z,0.96
2023-11-30T16:20:15.623Z,0.92
2023-11-30T16:22:43.724Z,0.92
2023-11-30T16:25:13.753Z,0.90
2023-11-30T16:27:43.450Z,0.89
2023-11-30T16:30:12.810Z,0.83
2023-11-30T16:32:41.079Z,0.79
2023-11-30T16:35:10.178Z,0.73
2023-11-30T16:37:38.306Z,0.65
2023-11-30T16:40:08.370Z,0.58
2023-11-30T16:42:38.213Z,0.54
2023-11-30T16:45:09.790Z,0.54
2023-11-30T16:47:39.391Z,0.49
2023-11-30T16:50:09.782Z,0.51
2023-11-30T16:52:38.089Z,0.46
2023-11-30T16:55:06.778Z,0.47
2023-11-30T16:57:34.969Z,0.47
2023-11-30T17:00:05.422Z,0.40
2023-11-30T17:02:33.764Z,0.36
2023-11-30T17:05:02.045Z,0.28
2023-11-30T17:07:30.621Z,0.29
2023-11-30T17:09:59.051Z,0.25
2023-11-30T17:12:27.503Z,0.11
2023-11-30T17:14:55.582Z,0.12
2023-11-30T17:17:25.038Z,0.13
2023-11-30T17:19:53.128Z,0.11
2023-11-30T17:22:21.174Z,0.14
2023-11-30T17:24:49.547Z,0.15
2023-11-30T17:27:17.716Z,0.13
2023-11-30T17:29:45.826Z,0.09
2023-11-30T17:32:13.993Z,0.17
2023-11-30T17:34:44.432Z,0.15
2023-11-30T17:37:14.186Z,0.13
2023-11-30T17:39:44.628Z,0.11
2023-11-30T17:42:12.756Z,0.08
2023-11-30T17:44:40.883Z,0.05
2023-11-30T17:47:09.090Z,-0.08
2023-11-30T17:49:37.379Z,-0.11
2023-11-30T17:52:07.419Z,-0.08
2023-11-30T17:54:35.563Z,-0.08
2023-11-30T17:57:06.681Z,-0.14
2023-11-30T17:59:34.774Z,-0.17
2023-11-30T18:02:05.878Z,-0.18
2023-11-30T18:04:34.163Z,-0.09
2023-11-30T18:07:02.430Z,-0.12
2023-11-30T18:09:32.191Z,-0.09
2023-11-30T18:12:02.920Z,-0.07
2023-11-30T18:14:33.118Z,-0.12
2023-11-30T18:17:01.536Z,-0.09
2023-11-30T18:19:29.853Z,-0.14
2023-11-30T18:21:58.784Z,-0.19
2023-11-30T18:24:31.109Z,-0.25
2023-11-30T18:27:02.845Z,-0.25
2023-11-30T18:29:31.617Z,-0.20
2023-11-30T18:32:00.893Z,-0.19
2023-11-30T18:34:29.138Z,-0.19
2023-11-30T18:36:57.218Z,-0.12
2023-11-30T18:39:25.585Z,-0.15
2023-11-30T18:41:56.161Z,-0.23
2023-11-30T18:44:26.168Z,-0.18
2023-11-30T18:46:54.308Z,-0.19
2023-11-30T18:49:22.361Z,-0.13
2023-11-30T18:51:50.469Z,-0.13
2023-11-30T18:54:21.975Z,-0.09
2023-11-30T18:56:50.283Z,-0.11
2023-11-30T18:59:18.428Z,-0.12
2023-11-30T19:01:48.016Z,-0.14
2023-11-30T19:04:16.304Z,-0.08
2023-11-30T19:06:46.975Z,-0.11
2023-11-30T19:09:17.282Z,-0.09
2023-11-30T19:11:46.166Z,-0.08
2023-11-30T19:14:14.230Z,-0.15
2023-11-30T19:16:42.282Z,-0.12
2023-11-30T19:19:11.919Z,-0.11
2023-11-30T19:21:42.677Z,-0.14
2023-11-30T19:24:12.283Z,-0.18
2023-11-30T19:26:42.408Z,-0.15
2023-11-30T19:29:12.226Z,-0.18
2023-11-30T19:31:40.521Z,-0.12
2023-11-30T19:34:10.644Z,-0.15
2023-11-30T19:36:43.112Z,-0.14
2023-11-30T19:39:11.304Z,-0.17
2023-11-30T19:41:43.840Z,-0.14
2023-11-30T19:44:12.734Z,-0.09
2023-11-30T19:46:40.813Z,-0.08
2023-11-30T19:49:09.087Z,-0.06
2023-11-30T19:51:37.331Z,-0.16
2023-11-30T19:54:07.119Z,-0.13
2023-11-30T19:56:36.994Z,-0.29
2023-11-30T19:59:05.220Z,-0.20
2023-11-30T20:01:33.748Z,-0.22
2023-11-30T20:04:02.170Z,-0.24
2023-11-30T20:06:30.272Z,-0.23
2023-11-30T20:08:58.285Z,-0.24
2023-11-30T20:11:27.694Z,-0.23
2023-11-30T20:13:55.666Z,-0.20
2023-11-30T20:16:23.666Z,-0.19
2023-11-30T20:18:51.717Z,-0.27
2023-11-30T20:21:22.148Z,-0.25
2023-11-30T20:23:50.656Z,-0.21
2023-11-30T20:26:19.264Z,-0.22
2023-11-30T20:28:48.864Z,-0.21
2023-11-30T20:31:17.485Z,-0.23
2023-11-30T20:33:46.956Z,-0.21
2023-11-30T20:36:15.773Z,-0.17
2023-11-30T20:38:44.640Z,-0.16
2023-11-30T20:41:13.060Z,-0.15
2023-11-30T20:43:41.221Z,-0.15
2023-11-30T20:46:10.881Z,-0.17
2023-11-30T20:48:41.894Z,-0.19
2023-11-30T20:51:10.187Z,-0.22
2023-11-30T20:53:38.153Z,-0.22
2023-11-30T20:56:07.663Z,-0.19
2023-11-30T20:58:36.080Z,-0.15
2023-11-30T21:01:04.378Z,-0.21
2023-11-30T21:03:33.965Z,-0.20
2023-11-30T21:06:02.351Z,-0.35
2023-11-30T21:08:33.606Z,-0.45
2023-11-30T21:11:01.938Z,-0.43
2023-11-30T21:13:33.386Z,-0.42
2023-11-30T21:16:01.524Z,-0.40
2023-11-30T21:18:29.896Z,-0.46
2023-11-30T21:20:59.529Z,-0.45
2023-11-30T21:23:27.574Z,-0.48
2023-11-30T21:25:55.764Z,-0.56
2023-11-30T21:28:23.853Z,-0.59
2023-11-30T21:30:52.123Z,-0.53
2023-11-30T21:33:20.824Z,-0.54
2023-11-30T21:35:48.971Z,-0.58
2023-11-30T21:38:18.383Z,-0.59
2023-11-30T21:40:47.769Z,-0.62
2023-11-30T21:43:15.840Z,-0.70
2023-11-30T21:45:43.976Z,-0.66
2023-11-30T21:48:12.314Z,-0.66
2023-11-30T21:50:40.400Z,-0.70
2023-11-30T21:53:08.759Z,-0.70
2023-11-30T21:55:38.248Z,-0.74
2023-11-30T21:58:06.816Z,-0.70
2023-11-30T22:00:35.080Z,-0.67
2023-11-30T22:03:03.461Z,-0.66
2023-11-30T22:05:36.376Z,-0.74
2023-11-30T22:08:05.811Z,-0.74
2023-11-30T22:10:33.928Z,-0.80
2023-11-30T22:13:03.787Z,-0.74
2023-11-30T22:15:31.965Z,-0.78
2023-11-30T22:18:01.201Z,-0.79
2023-11-30T22:20:29.310Z,-0.77
2023-11-30T22:22:57.523Z,-0.73
2023-11-30T22:25:25.599Z,-0.80
2023-11-30T22:27:53.788Z,-0.84
2023-11-30T22:30:23.277Z,-0.84
2023-11-30T22:32:52.952Z,-0.84
2023-11-30T22:35:21.157Z,-0.87
2023-11-30T22:37:49.542Z,-0.88
2023-11-30T22:40:17.834Z,-0.83
2023-11-30T22:42:46.007Z,-0.86
2023-11-30T22:45:14.400Z,-0.82
2023-11-30T22:47:43.996Z,-0.79
2023-11-30T22:50:12.315Z,-0.79
2023-11-30T22:52:40.485Z,-0.81
2023-11-30T22:55:09.784Z,-0.82
2023-11-30T22:57:40.630Z,-0.81
2023-11-30T23:00:17.581Z,-0.79
2023-11-30T23:02:47.282Z,-0.80
2023-11-30T23:05:16.679Z,-0.76
2023-11-30T23:07:48.405Z,-0.73
2023-11-30T23:10:18.597Z,-0.75
2023-11-30T23:12:47.066Z,-0.79
2023-11-30T23:15:15.246Z,-0.82
2023-11-30T23:17:43.450Z,-0.78
2023-11-30T23:20:13.503Z,-0.79
2023-11-30T23:22:42.525Z,-0.77
2023-11-30T23:25:11.438Z,-0.81
2023-11-30T23:27:39.889Z,-0.81
2023-11-30T23:30:11.392Z,-0.82
2023-11-30T23:32:44.284Z,-0.79
2023-11-30T23:35:13.904Z,-0.75
2023-11-30T23:37:44.865Z,-0.74
2023-11-30T23:40:14.253Z,-0.78
2023-11-30T23:42:42.478Z,-0.81
2023-11-30T23:45:11.511Z,-0.81
2023-11-30T23:47:39.950Z,-0.78
2023-11-30T23:50:09.252Z,-0.81
2023-11-30T23:52:38.675Z,-0.86
2023-11-30T23:55:07.673Z,-0.93
2023-11-30T23:57:36.748Z,-0.92
